Time;durP1;ratioP1;P1;durP2;ratioP2;P2;SDS_P1;SDS_P2;PMS_P1;PMS_P2;Temp;Humidity;BMP_temperature;BMP_pressure;BME280_temperature;BME280_humidity;BME280_pressure;Samples;Min_cycle;Max_cycle;Signal;HPM_P1;HPM_P2
2023/10/08 00:02:06;;;;;;;4.78;3.55;;;19.50;77.20;;;;;;5083411;28;20892;-72
2023/10/08 00:04:37;;;;;;;4.40;3.20;;;19.40;77.40;;;;;;5087756;22;20431;-72
2023/10/08 00:07:07;;;;;;;4.57;3.10;;;19.40;77.30;;;;;;5058396;28;20492;-72
2023/10/08 00:09:36;;;;;;;3.93;2.90;;;19.40;77.30;;;;;;5065564;28;20979;-71
2023/10/08 00:12:04;;;;;;;6.60;3.10;;;19.30;77.50;;;;;;5059717;28;20447;-71
2023/10/08 00:14:32;;;;;;;3.80;2.70;;;19.30;77.70;;;;;;5050928;28;20436;-71
2023/10/08 00:17:00;;;;;;;5.20;3.20;;;19.30;77.90;;;;;;5046985;28;20753;-72
2023/10/08 00:19:33;;;;;;;5.15;3.40;;;19.30;78.10;;;;;;5049080;28;20423;-71
2023/10/08 00:22:04;;;;;;;4.28;3.10;;;19.20;78.60;;;;;;5047499;28;20417;-71
2023/10/08 00:24:33;;;;;;;4.40;2.80;;;19.20;78.60;;;;;;5045657;28;20452;-71
2023/10/08 00:27:00;;;;;;;5.45;3.20;;;19.10;78.80;;;;;;5046984;28;20425;-73
2023/10/08 00:29:31;;;;;;;4.88;3.50;;;19.10;79.00;;;;;;5048023;28;20429;-72
2023/10/08 00:31:58;;;;;;;3.85;3.25;;;19.00;79.30;;;;;;5049012;28;20417;-71
2023/10/08 00:34:27;;;;;;;4.07;3.40;;;19.00;79.40;;;;;;5052608;28;20429;-71
2023/10/08 00:36:54;;;;;;;5.22;3.67;;;18.90;79.50;;;;;;5054318;28;20432;-71
2023/10/08 00:39:23;;;;;;;5.40;3.50;;;18.90;79.70;;;;;;5052658;28;20425;-72
2023/10/08 00:41:58;;;;;;;5.75;3.40;;;18.90;79.80;;;;;;5054218;28;20413;-72
2023/10/08 00:44:29;;;;;;;4.82;3.15;;;18.90;79.80;;;;;;5048292;28;20432;-72
2023/10/08 00:47:00;;;;;;;4.10;3.10;;;18.90;80.20;;;;;;5055803;28;20429;-72
2023/10/08 00:49:39;;;;;;;5.90;3.38;;;18.80;80.10;;;;;;5050049;28;20500;-72
2023/10/08 00:52:26;;;;;;;5.43;3.10;;;18.80;80.40;;;;;;5050376;28;20483;-72
2023/10/08 00:55:06;;;;;;;4.68;3.20;;;18.80;80.50;;;;;;5049609;28;20429;-72
2023/10/08 00:57:36;;;;;;;4.63;3.30;;;18.70;80.20;;;;;;5048080;28;20435;-72
2023/10/08 01:00:06;;;;;;;3.70;3.10;;;18.70;80.70;;;;;;5053771;28;20803;-72
2023/10/08 01:02:45;;;;;;;6.57;3.40;;;18.70;80.30;;;;;;5050333;28;20435;-72
2023/10/08 01:05:18;;;;;;;7.13;3.30;;;18.70;80.50;;;;;;5048842;28;20942;-72
2023/10/08 01:07:48;;;;;;;5.57;3.20;;;18.70;80.20;;;;;;5047342;28;20538;-72
2023/10/08 01:10:19;;;;;;;5.05;3.30;;;18.70;80.30;;;;;;5053555;28;20421;-72
2023/10/08 01:13:03;;;;;;;4.47;3.35;;;18.70;80.10;;;;;;5047307;28;20437;-72
2023/10/08 01:15:30;;;;;;;4.50;3.15;;;18.70;80.20;;;;;;5049526;28;20535;-72
2023/10/08 01:18:00;;;;;;;5.43;3.63;;;18.70;80.50;;;;;;5049126;28;20565;-71
2023/10/08 01:20:37;;;;;;;5.00;3.47;;;18.60;80.60;;;;;;5050016;28;20838;-71
2023/10/08 01:23:09;;;;;;;3.85;3.10;;;18.60;80.50;;;;;;5040915;28;20486;-71
2023/10/08 01:25:37;;;;;;;5.35;3.63;;;18.50;80.90;;;;;;5049828;28;20431;-71
2023/10/08 01:28:15;;;;;;;4.68;3.38;;;18.50;81.10;;;;;;5042846;28;20435;-71
2023/10/08 01:30:45;;;;;;;5.90;3.50;;;18.40;81.20;;;;;;5049022;28;20457;-71
2023/10/08 01:33:14;;;;;;;4.80;3.42;;;18.40;81.40;;;;;;5049348;28;20421;-71
2023/10/08 01:35:41;;;;;;;5.30;3.50;;;18.30;81.80;;;;;;5049470;28;20422;-71
2023/10/08 01:38:13;;;;;;;6.30;3.60;;;18.30;81.70;;;;;;5048176;28;20429;-72
2023/10/08 01:40:41;;;;;;;4.97;3.47;;;18.30;81.70;;;;;;5050543;28;20445;-72
2023/10/08 01:43:08;;;;;;;4.50;3.40;;;18.20;81.70;;;;;;5045876;28;21012;-72
2023/10/08 01:45:40;;;;;;;6.15;3.92;;;18.20;81.90;;;;;;5049324;28;20421;-72
2023/10/08 01:48:09;;;;;;;5.82;3.40;;;18.10;82.00;;;;;;5051466;28;20416;-72
2023/10/08 01:50:36;;;;;;;5.35;3.75;;;18.10;81.70;;;;;;5047878;28;20465;-72
2023/10/08 01:53:05;;;;;;;4.60;3.60;;;18.10;81.90;;;;;;5048609;28;20425;-72
2023/10/08 01:55:44;;;;;;;7.03;4.30;;;18.10;81.80;;;;;;5049412;28;20459;-72
2023/10/08 01:58:14;;;;;;;4.43;3.30;;;18.00;82.80;;;;;;5046821;28;20518;-72
2023/10/08 02:00:45;;;;;;;5.60;3.50;;;18.00;82.20;;;;;;5048927;28;20441;-71
2023/10/08 02:03:13;;;;;;;5.20;3.20;;;18.00;82.10;;;;;;5043325;28;20427;-72
2023/10/08 02:05:41;;;;;;;6.28;3.40;;;18.00;82.20;;;;;;5054459;28;20446;-72
2023/10/08 02:08:09;;;;;;;4.95;3.17;;;18.00;82.30;;;;;;5048262;28;20430;-71
2023/10/08 02:10:38;;;;;;;6.00;3.58;;;17.90;82.20;;;;;;5047194;28;20441;-71
2023/10/08 02:13:05;;;;;;;4.03;3.20;;;17.90;82.40;;;;;;5046184;28;20932;-71
2023/10/08 02:15:32;;;;;;;5.50;3.70;;;17.90;82.60;;;;;;5049142;28;20413;-71
2023/10/08 02:17:59;;;;;;;5.45;3.40;;;17.90;82.80;;;;;;5056212;28;20413;-71
2023/10/08 02:20:27;;;;;;;5.10;3.75;;;17.80;83.10;;;;;;5048229;28;20409;-71
2023/10/08 02:22:54;;;;;;;5.43;3.38;;;17.70;83.30;;;;;;5048308;28;20440;-71
2023/10/08 02:25:22;;;;;;;5.37;3.50;;;17.70;83.50;;;;;;5048794;28;20868;-71
2023/10/08 02:27:51;;;;;;;5.18;3.47;;;17.60;83.60;;;;;;5046878;28;20517;-71
2023/10/08 02:30:18;;;;;;;3.92;3.20;;;17.60;84.10;;;;;;5047765;28;20436;-70
2023/10/08 02:32:46;;;;;;;5.90;3.50;;;17.60;84.40;;;;;;5049418;28;20498;-71
2023/10/08 02:35:13;;;;;;;6.82;3.35;;;17.50;84.30;;;;;;5050942;28;20740;-71
2023/10/08 02:37:40;;;;;;;5.70;3.63;;;17.50;84.70;;;;;;5048159;28;20436;-72
2023/10/08 02:40:16;;;;;;;4.55;3.50;;;17.50;84.70;;;;;;5046200;28;20930;-72
2023/10/08 02:42:44;;;;;;;6.07;3.50;;;17.40;84.70;;;;;;5047099;28;20633;-71
2023/10/08 02:45:13;;;;;;;5.72;3.60;;;17.50;84.80;;;;;;5045938;28;20436;-71
2023/10/08 02:47:44;;;;;;;5.20;3.70;;;17.50;84.50;;;;;;5048078;28;20942;-71
2023/10/08 02:50:12;;;;;;;4.90;3.50;;;17.50;84.20;;;;;;5047834;28;20500;-70
2023/10/08 02:52:38;;;;;;;6.80;3.20;;;17.50;84.10;;;;;;5055517;28;20409;-71
2023/10/08 02:55:18;;;;;;;4.55;3.42;;;17.50;84.10;;;;;;5042786;28;20560;-71
2023/10/08 02:57:45;;;;;;;5.05;3.20;;;17.50;84.40;;;;;;5047127;28;20928;-72
2023/10/08 03:00:15;;;;;;;5.77;3.30;;;17.50;84.10;;;;;;5047000;28;20441;-71
2023/10/08 03:02:42;;;;;;;4.32;3.03;;;17.50;84.00;;;;;;5047634;28;20534;-72
2023/10/08 03:05:13;;;;;;;7.50;3.60;;;17.40;84.50;;;;;;5055220;28;20454;-71
2023/10/08 03:07:40;;;;;;;6.10;3.38;;;17.50;83.90;;;;;;5048154;28;20508;-70
2023/10/08 03:10:17;;;;;;;3.72;2.90;;;17.50;83.90;;;;;;5045325;28;20436;-71
2023/10/08 03:12:46;;;;;;;5.00;3.30;;;17.50;84.40;;;;;;5041932;28;20437;-72
2023/10/08 03:15:28;;;;;;;6.07;3.40;;;17.50;84.40;;;;;;5046189;28;20487;-70
2023/10/08 03:17:57;;;;;;;4.90;2.95;;;17.40;84.10;;;;;;5047993;28;20418;-70
2023/10/08 03:20:38;;;;;;;4.25;3.42;;;17.40;84.20;;;;;;5047107;28;20433;-71
2023/10/08 03:23:06;;;;;;;5.80;3.60;;;17.40;83.80;;;;;;5048973;28;20654;-71
2023/10/08 03:25:41;;;;;;;6.00;3.40;;;17.40;83.70;;;;;;5047288;28;20822;-72
2023/10/08 03:28:09;;;;;;;4.63;3.40;;;17.40;83.60;;;;;;5046888;28;20432;-72
2023/10/08 03:30:47;;;;;;;5.00;3.60;;;17.40;83.80;;;;;;5046695;28;21011;-72
2023/10/08 03:33:22;;;;;;;6.40;3.55;;;17.40;83.60;;;;;;5047650;28;20409;-72
2023/10/08 03:35:49;;;;;;;5.82;3.50;;;17.40;83.80;;;;;;5048470;28;20522;-72
2023/10/08 03:38:28;;;;;;;5.40;3.70;;;17.40;83.90;;;;;;5047869;28;20437;-71
2023/10/08 03:41:03;;;;;;;5.40;3.40;;;17.30;83.90;;;;;;5048459;28;20777;-72
2023/10/08 03:43:42;;;;;;;5.78;3.65;;;17.30;83.90;;;;;;5047232;28;20492;-72
2023/10/08 03:46:15;;;;;;;5.97;3.80;;;17.30;83.90;;;;;;5045403;28;20459;-72
2023/10/08 03:48:44;;;;;;;5.05;3.90;;;17.30;84.10;;;;;;5050621;28;20471;-72
2023/10/08 03:51:12;;;;;;;6.38;3.58;;;17.30;84.40;;;;;;5046248;28;20510;-72
2023/10/08 03:53:57;;;;;;;8.40;3.63;;;17.30;84.20;;;;;;5050181;28;20425;-71
2023/10/08 03:56:26;;;;;;;5.55;3.30;;;17.20;84.40;;;;;;5040449;28;20799;-72
2023/10/08 03:58:54;;;;;;;6.53;4.05;;;17.20;84.80;;;;;;5051239;28;20471;-72
2023/10/08 04:01:24;;;;;;;6.93;3.53;;;17.20;84.60;;;;;;5046061;28;20429;-72
2023/10/08 04:03:58;;;;;;;5.20;3.80;;;17.20;84.70;;;;;;5048227;28;20429;-72
2023/10/08 04:06:30;;;;;;;5.97;3.80;;;17.20;84.60;;;;;;5052655;28;20503;-72
2023/10/08 04:09:11;;;;;;;7.07;3.90;;;17.20;84.60;;;;;;5057345;28;20429;-72
2023/10/08 04:11:51;;;;;;;4.82;3.25;;;17.20;84.80;;;;;;5048716;28;20433;-72
2023/10/08 04:14:19;;;;;;;5.18;3.47;;;17.30;85.00;;;;;;5051113;28;20799;-72
2023/10/08 04:16:51;;;;;;;6.20;3.75;;;17.30;84.90;;;;;;5050753;28;20495;-72
2023/10/08 04:19:18;;;;;;;5.47;3.80;;;17.20;84.70;;;;;;5050181;28;20844;-72
2023/10/08 04:21:45;;;;;;;5.43;3.67;;;17.20;84.70;;;;;;5049866;28;20486;-72
2023/10/08 04:24:14;;;;;;;5.60;3.80;;;17.20;85.50;;;;;;5054209;28;20429;-72
2023/10/08 04:26:42;;;;;;;6.32;3.67;;;17.10;85.70;;;;;;5048116;28;20432;-71
2023/10/08 04:29:09;;;;;;;6.22;3.60;;;17.10;85.60;;;;;;5048408;28;20425;-71
2023/10/08 04:31:37;;;;;;;5.65;3.70;;;17.10;85.50;;;;;;5051313;28;20795;-71
2023/10/08 04:34:14;;;;;;;6.03;3.70;;;17.10;86.20;;;;;;5054390;28;20429;-71
2023/10/08 04:36:41;;;;;;;5.05;3.38;;;17.00;86.00;;;;;;5055654;28;20420;-71
2023/10/08 04:39:13;;;;;;;5.60;3.80;;;17.00;86.00;;;;;;5051651;28;20920;-71
2023/10/08 04:41:42;;;;;;;5.70;3.53;;;17.00;86.10;;;;;;5048959;28;20469;-71
2023/10/08 04:44:14;;;;;;;3.88;3.40;;;16.90;86.40;;;;;;5042718;28;20896;-71
2023/10/08 04:46:52;;;;;;;4.72;3.50;;;16.90;86.30;;;;;;5056228;28;20459;-72
2023/10/08 04:49:27;;;;;;;5.00;3.53;;;16.90;86.60;;;;;;5046611;28;20417;-72
2023/10/08 04:51:56;;;;;;;6.38;3.80;;;16.90;87.00;;;;;;5049339;28;20409;-71
2023/10/08 04:54:24;;;;;;;6.30;3.80;;;16.80;86.70;;;;;;5051069;28;20441;-72
2023/10/08 04:56:53;;;;;;;5.90;4.10;;;16.80;86.80;;;;;;5048404;28;20519;-72
2023/10/08 04:59:22;;;;;;;5.63;3.70;;;16.80;86.90;;;;;;5050269;28;20520;-71
2023/10/08 05:02:12;;;;;;;4.78;3.70;;;16.80;86.90;;;;;;5049303;28;20437;-71
2023/10/08 05:04:55;;;;;;;5.30;4.00;;;16.80;86.90;;;;;;5046561;28;20867;-72
2023/10/08 05:07:40;;;;;;;5.05;3.80;;;16.80;87.30;;;;;;5044068;28;20460;-72
2023/10/08 05:10:11;;;;;;;6.72;4.20;;;16.80;87.60;;;;;;5048412;28;20858;-72
2023/10/08 05:12:46;;;;;;;5.82;3.80;;;16.80;88.70;;;;;;5045199;28;20456;-71
2023/10/08 05:15:33;;;;;;;4.93;3.70;;;16.80;87.70;;;;;;5047638;28;20515;-71
2023/10/08 05:18:13;;;;;;;5.57;3.90;;;16.70;87.60;;;;;;5049371;28;21000;-71
2023/10/08 05:20:58;;;;;;;5.50;3.70;;;16.70;87.70;;;;;;5049362;28;20441;-72
2023/10/08 05:26:20;;;;;;;5.65;3.67;;;16.70;87.60;;;;;;5050324;28;20527;-71
2023/10/08 05:29:00;;;;;;;5.00;3.58;;;16.70;87.60;;;;;;5047226;28;20514;-71
2023/10/08 05:31:46;;;;;;;5.97;3.60;;;16.70;87.90;;;;;;5047564;28;20425;-71
2023/10/08 05:34:17;;;;;;;6.18;3.85;;;16.60;88.10;;;;;;5047907;28;20428;-71
2023/10/08 05:37:11;;;;;;;6.28;3.88;;;16.60;88.40;;;;;;5049945;28;20549;-71
2023/10/08 05:39:40;;;;;;;6.35;4.13;;;16.60;88.30;;;;;;5049252;28;20911;-71
2023/10/08 05:42:16;;;;;;;5.60;4.28;;;16.50;89.40;;;;;;5051462;28;20434;-71
2023/10/08 05:44:46;;;;;;;7.10;3.90;;;16.50;89.40;;;;;;5048688;28;20437;-71
2023/10/08 05:47:37;;;;;;;7.15;4.10;;;16.50;90.20;;;;;;5047794;28;20599;-71
2023/10/08 05:53:15;;;;;;;5.15;3.70;;;16.40;90.00;;;;;;5035160;28;20524;-72
2023/10/08 05:55:47;;;;;;;5.72;3.80;;;16.40;90.10;;;;;;5047050;28;20935;-71
2023/10/08 05:58:24;;;;;;;6.10;3.80;;;16.40;90.20;;;;;;5046609;28;20933;-71
2023/10/08 06:01:08;;;;;;;6.00;3.83;;;16.40;90.60;;;;;;5050833;28;20908;-72
2023/10/08 06:03:46;;;;;;;6.90;4.37;;;16.40;91.10;;;;;;5047346;28;20880;-72
2023/10/08 06:06:35;;;;;;;6.97;4.63;;;16.40;91.60;;;;;;5041904;28;20433;-71
2023/10/08 06:09:21;;;;;;;5.40;4.15;;;16.30;91.20;;;;;;5054906;28;20425;-71
2023/10/08 06:12:09;;;;;;;6.35;4.30;;;16.40;91.70;;;;;;5047790;28;20440;-71
2023/10/08 06:15:07;;;;;;;6.10;4.60;;;16.30;91.70;;;;;;5050734;28;20433;-71
2023/10/08 06:20:25;;;;;;;7.15;4.47;;;16.40;91.70;;;;;;5052988;28;20430;-71
2023/10/08 06:22:54;;;;;;;6.00;4.00;;;16.40;91.60;;;;;;5049728;28;20507;-71
2023/10/08 06:25:24;;;;;;;6.83;3.80;;;16.40;91.50;;;;;;5047584;28;20513;-72
2023/10/08 06:27:55;;;;;;;5.82;4.30;;;16.50;91.60;;;;;;5049005;28;20429;-72
2023/10/08 06:30:24;;;;;;;5.10;3.60;;;16.50;91.80;;;;;;5049007;28;20427;-70
2023/10/08 06:32:53;;;;;;;5.70;4.03;;;16.50;90.90;;;;;;5047191;28;20433;-70
2023/10/08 06:35:24;;;;;;;6.90;4.20;;;16.50;90.50;;;;;;5090065;22;20441;-74
2023/10/08 06:37:54;;;;;;;5.85;3.90;;;16.60;90.50;;;;;;5072973;28;20478;-74
2023/10/08 06:43:16;;;;;;;6.50;4.30;;;16.60;90.30;;;;;;5042520;28;20476;-74
2023/10/08 06:45:46;;;;;;;5.73;3.43;;;16.60;90.50;;;;;;5080246;28;20504;-76
2023/10/08 06:48:18;;;;;;;6.05;4.40;;;16.60;90.40;;;;;;5087409;28;20422;-73
2023/10/08 06:50:45;;;;;;;6.53;3.80;;;16.50;90.50;;;;;;5084168;28;20413;-75
2023/10/08 06:53:13;;;;;;;6.15;3.90;;;16.60;90.60;;;;;;5085318;28;20421;-73
2023/10/08 06:55:41;;;;;;;6.82;4.50;;;16.60;90.60;;;;;;5082128;28;20782;-73
2023/10/08 06:58:08;;;;;;;5.90;3.90;;;16.60;90.70;;;;;;5082091;28;20824;-74
2023/10/08 07:00:40;;;;;;;6.30;4.40;;;16.60;90.60;;;;;;5088247;28;20452;-74
2023/10/08 07:03:10;;;;;;;7.18;3.80;;;16.60;90.80;;;;;;5085468;28;20456;-72
2023/10/08 07:05:40;;;;;;;7.10;3.80;;;16.70;90.60;;;;;;5081964;28;20437;-71
2023/10/08 07:08:08;;;;;;;6.88;4.07;;;16.80;90.60;;;;;;5081958;28;20444;-72
2023/10/08 07:10:35;;;;;;;7.13;3.95;;;16.80;91.10;;;;;;5081221;28;20456;-71
2023/10/08 07:13:03;;;;;;;6.63;3.72;;;16.90;90.60;;;;;;5082882;28;20402;-71
2023/10/08 07:15:31;;;;;;;5.68;4.10;;;17.00;90.40;;;;;;5084254;28;20417;-74
2023/10/08 07:18:08;;;;;;;7.05;4.18;;;17.00;90.10;;;;;;5090939;28;20513;-73
2023/10/08 07:20:39;;;;;;;6.10;4.10;;;17.00;90.10;;;;;;5082948;28;20522;-74
2023/10/08 07:23:11;;;;;;;8.45;4.20;;;17.10;90.30;;;;;;5082526;28;20799;-75
2023/10/08 07:25:38;;;;;;;6.10;4.00;;;17.10;90.70;;;;;;5078804;28;20603;-74
2023/10/08 07:28:09;;;;;;;9.27;4.90;;;17.10;90.60;;;;;;5076942;28;20430;-74
2023/10/08 07:30:43;;;;;;;6.15;4.20;;;17.10;90.40;;;;;;5083154;28;20398;-74
2023/10/08 07:33:17;;;;;;;8.48;4.32;;;17.10;90.40;;;;;;5081608;28;20513;-74
2023/10/08 07:35:51;;;;;;;5.05;4.47;;;17.10;90.30;;;;;;5081705;28;20455;-74
2023/10/08 07:38:18;;;;;;;6.45;4.05;;;17.10;90.20;;;;;;5078978;28;20532;-73
2023/10/08 07:40:44;;;;;;;8.07;5.25;;;17.10;90.20;;;;;;5084972;28;20445;-74
2023/10/08 07:43:12;;;;;;;6.50;4.10;;;17.20;90.30;;;;;;5077038;28;20449;-73
2023/10/08 07:45:39;;;;;;;6.88;4.10;;;17.20;90.20;;;;;;5079972;28;20517;-74
2023/10/08 07:48:09;;;;;;;4.90;3.72;;;17.20;90.30;;;;;;5083283;28;20449;-72
2023/10/08 07:50:42;;;;;;;7.85;4.90;;;17.30;90.70;;;;;;5086386;28;20557;-72
2023/10/08 07:53:17;;;;;;;6.78;4.47;;;17.40;90.80;;;;;;5084162;28;20509;-72
2023/10/08 07:55:47;;;;;;;7.03;4.93;;;17.50;89.90;;;;;;5089919;28;20920;-71
2023/10/08 07:58:19;;;;;;;7.13;4.50;;;17.60;90.00;;;;;;5083450;28;20453;-70
2023/10/08 08:00:52;;;;;;;6.78;4.18;;;17.60;90.10;;;;;;5082969;28;20463;-70
2023/10/08 08:03:20;;;;;;;8.13;4.40;;;17.70;90.40;;;;;;5086262;28;20796;-73
2023/10/08 08:05:52;;;;;;;7.95;4.60;;;17.80;89.40;;;;;;5085746;28;20429;-73
2023/10/08 08:08:22;;;;;;;7.28;5.10;;;17.80;88.90;;;;;;5087818;28;20507;-73
2023/10/08 08:10:57;;;;;;;6.20;4.93;;;17.90;88.40;;;;;;5082843;28;20802;-74
2023/10/08 08:13:27;;;;;;;8.13;4.53;;;17.90;89.30;;;;;;5084742;28;20433;-73
2023/10/08 08:15:58;;;;;;;6.85;4.25;;;18.00;87.70;;;;;;5081557;28;20445;-73
2023/10/08 08:18:32;;;;;;;6.45;4.20;;;18.20;88.20;;;;;;5085431;28;20430;-73
2023/10/08 08:21:02;;;;;;;7.60;4.23;;;18.30;88.50;;;;;;5080985;28;20438;-73
2023/10/08 08:23:29;;;;;;;7.40;4.60;;;18.40;87.00;;;;;;5086494;28;20528;-73
2023/10/08 08:26:06;;;;;;;7.07;4.35;;;18.60;87.40;;;;;;5084128;28;20790;-74
2023/10/08 08:28:33;;;;;;;6.33;4.40;;;18.60;86.60;;;;;;5085042;28;20445;-72
2023/10/08 08:31:04;;;;;;;6.90;4.40;;;18.70;86.00;;;;;;5077335;28;20431;-74
2023/10/08 08:33:52;;;;;;;6.93;4.70;;;18.70;87.00;;;;;;5089439;28;20437;-73
2023/10/08 08:36:20;;;;;;;7.20;4.97;;;18.70;87.50;;;;;;5079610;28;20509;-75
2023/10/08 08:38:47;;;;;;;6.68;4.40;;;18.70;87.00;;;;;;5086518;28;20471;-76
2023/10/08 08:41:17;;;;;;;5.25;4.05;;;18.70;86.60;;;;;;5081500;28;20430;-79
2023/10/08 08:43:45;;;;;;;4.95;3.90;;;18.70;86.10;;;;;;5085706;28;20484;-78
2023/10/08 08:46:13;;;;;;;8.87;7.10;;;18.70;86.50;;;;;;5077477;28;20666;-78
2023/10/08 08:48:41;;;;;;;7.38;4.40;;;18.70;86.20;;;;;;5085428;28;20487;-77
2023/10/08 08:51:09;;;;;;;7.65;4.88;;;18.70;87.00;;;;;;5087133;28;20471;-79
2023/10/08 08:53:37;;;;;;;8.85;4.90;;;18.80;86.30;;;;;;5090200;28;20439;-78
2023/10/08 08:56:09;;;;;;;7.63;4.40;;;18.80;86.20;;;;;;5093354;28;20410;-78
2023/10/08 08:58:36;;;;;;;7.43;5.00;;;18.90;86.20;;;;;;5087896;28;20504;-77
2023/10/08 09:01:04;;;;;;;5.45;4.80;;;19.00;85.50;;;;;;5086354;28;20430;-76
2023/10/08 09:03:31;;;;;;;6.00;4.38;;;19.00;84.40;;;;;;5080949;28;21716;-76
2023/10/08 09:05:58;;;;;;;8.23;4.75;;;19.00;85.40;;;;;;5085274;28;20482;-76
2023/10/08 09:08:31;;;;;;;6.10;3.90;;;19.00;86.30;;;;;;5084101;28;20939;-76
2023/10/08 09:11:01;;;;;;;5.70;4.40;;;19.20;85.40;;;;;;5085137;28;20440;-76
2023/10/08 09:13:28;;;;;;;7.87;4.90;;;19.30;85.10;;;;;;5082093;28;20429;-77
2023/10/08 09:15:58;;;;;;;7.65;4.57;;;19.40;83.90;;;;;;5082765;28;20417;-77
2023/10/08 09:18:27;;;;;;;7.07;4.63;;;19.50;83.40;;;;;;5076566;28;20500;-76
2023/10/08 09:20:55;;;;;;;8.05;5.10;;;19.50;84.20;;;;;;5084156;28;20507;-76
2023/10/08 09:23:23;;;;;;;7.35;4.70;;;19.50;82.10;;;;;;5070795;28;20515;-76
2023/10/08 09:25:51;;;;;;;7.40;4.35;;;19.50;82.80;;;;;;5073274;28;20435;-77
2023/10/08 09:28:21;;;;;;;6.70;4.60;;;19.50;83.60;;;;;;5076833;28;20453;-77
2023/10/08 09:30:48;;;;;;;8.90;5.63;;;19.60;83.00;;;;;;5076387;28;20524;-79
2023/10/08 09:33:17;;;;;;;9.20;5.30;;;19.70;82.30;;;;;;5074992;28;20776;-78
2023/10/08 09:35:44;;;;;;;11.15;6.38;;;19.70;83.20;;;;;;5083900;28;20886;-78
2023/10/08 09:38:11;;;;;;;8.73;5.70;;;19.80;82.80;;;;;;5088540;28;20529;-79
2023/10/08 09:40:38;;;;;;;9.82;5.55;;;19.80;83.00;;;;;;5082164;28;20434;-78
2023/10/08 09:43:08;;;;;;;8.10;4.87;;;20.00;82.70;;;;;;5075020;28;20439;-77
2023/10/08 09:45:38;;;;;;;9.30;5.13;;;20.10;81.70;;;;;;5075935;28;20915;-76
2023/10/08 09:48:12;;;;;;;7.22;4.75;;;20.20;82.40;;;;;;5083914;28;20907;-78
2023/10/08 09:50:42;;;;;;;7.28;4.90;;;20.30;82.20;;;;;;5082561;28;20434;-77
2023/10/08 09:53:16;;;;;;;10.55;6.65;;;20.50;80.60;;;;;;5085448;28;20429;-77
2023/10/08 09:55:46;;;;;;;11.10;6.93;;;20.70;79.50;;;;;;5077078;28;20434;-77
2023/10/08 09:58:14;;;;;;;9.20;5.30;;;20.60;78.90;;;;;;5082166;28;20434;-78
2023/10/08 10:00:44;;;;;;;10.27;5.50;;;20.50;79.50;;;;;;5082523;28;20429;-76
2023/10/08 10:03:12;;;;;;;8.52;5.00;;;20.40;79.70;;;;;;5082438;28;20899;-77
2023/10/08 10:05:40;;;;;;;9.48;5.18;;;20.40;81.80;;;;;;5083355;28;20549;-79
2023/10/08 10:08:09;;;;;;;10.15;6.32;;;20.40;81.70;;;;;;5083630;28;20435;-77
2023/10/08 10:10:38;;;;;;;11.07;6.35;;;20.40;81.50;;;;;;5080444;28;20419;-78
2023/10/08 10:13:07;;;;;;;8.95;5.82;;;20.40;82.10;;;;;;5077813;28;20944;-77
2023/10/08 10:15:35;;;;;;;8.13;5.30;;;20.50;81.50;;;;;;5074822;28;20891;-77
2023/10/08 10:18:14;;;;;;;9.10;5.50;;;20.50;82.00;;;;;;5077550;28;20458;-77
2023/10/08 10:20:45;;;;;;;7.50;5.45;;;20.50;82.20;;;;;;5075746;28;20426;-77
2023/10/08 10:23:37;;;;;;;9.57;6.30;;;20.60;81.20;;;;;;5083082;28;20426;-76
2023/10/08 10:26:04;;;;;;;8.15;5.57;;;20.80;80.20;;;;;;5069656;28;22493;-76
2023/10/08 10:28:33;;;;;;;8.75;5.60;;;20.90;80.60;;;;;;5081107;28;20510;-76
2023/10/08 10:31:00;;;;;;;9.80;6.10;;;21.00;79.90;;;;;;5083287;28;20510;-78
2023/10/08 10:33:33;;;;;;;9.43;5.72;;;21.10;78.80;;;;;;5083191;28;20441;-75
2023/10/08 10:36:02;;;;;;;8.85;6.05;;;21.00;79.50;;;;;;5070763;28;20955;-76
2023/10/08 10:38:29;;;;;;;9.07;5.88;;;20.90;80.30;;;;;;5068301;28;20523;-75
2023/10/08 10:41:07;;;;;;;9.82;6.30;;;21.00;82.00;;;;;;5067330;28;20888;-76
2023/10/08 10:43:35;;;;;;;7.70;5.13;;;21.00;79.70;;;;;;5065876;28;20521;-77
2023/10/08 10:46:29;;;;;;;10.27;6.20;;;21.10;80.60;;;;;;5072246;28;20499;-76
2023/10/08 10:49:04;;;;;;;10.10;5.60;;;21.20;78.50;;;;;;5077123;28;20553;-76
2023/10/08 10:51:33;;;;;;;11.15;6.65;;;21.30;79.50;;;;;;5068847;28;20870;-76
2023/10/08 10:54:07;;;;;;;10.35;6.43;;;21.40;78.30;;;;;;5070867;28;20500;-77
2023/10/08 10:56:40;;;;;;;8.70;6.30;;;21.50;78.90;;;;;;5069907;28;20490;-76
2023/10/08 10:59:18;;;;;;;10.98;6.60;;;21.50;78.50;;;;;;5072805;28;20413;-76
2023/10/08 11:01:46;;;;;;;10.88;6.38;;;21.40;78.20;;;;;;5067674;28;20775;-75
2023/10/08 11:04:17;;;;;;;10.90;6.40;;;21.40;80.10;;;;;;5067061;28;20437;-77
2023/10/08 11:06:45;;;;;;;11.40;6.32;;;21.40;78.50;;;;;;5066225;28;20483;-76
2023/10/08 11:09:15;;;;;;;9.07;6.35;;;21.40;79.20;;;;;;5065776;28;20611;-75
2023/10/08 11:11:44;;;;;;;11.70;6.53;;;21.40;79.20;;;;;;5062920;28;20529;-76
2023/10/08 11:14:15;;;;;;;10.03;6.43;;;21.40;78.50;;;;;;5068501;28;20519;-76
2023/10/08 11:16:44;;;;;;;11.68;7.10;;;21.50;79.00;;;;;;5068793;28;20437;-76
2023/10/08 11:19:15;;;;;;;8.45;6.53;;;21.70;78.20;;;;;;5069740;28;20575;-75
2023/10/08 11:21:54;;;;;;;12.07;7.70;;;21.70;78.40;;;;;;5068304;28;20435;-75
2023/10/08 11:24:33;;;;;;;9.88;6.78;;;21.70;78.00;;;;;;5066767;28;20794;-75
2023/10/08 11:27:16;;;;;;;13.90;7.40;;;21.60;78.30;;;;;;5077048;28;20541;-76
2023/10/08 11:29:44;;;;;;;10.50;6.57;;;21.50;79.00;;;;;;5071190;28;20917;-75
2023/10/08 11:32:12;;;;;;;10.52;6.30;;;21.50;80.10;;;;;;5070721;28;20902;-75
2023/10/08 11:34:39;;;;;;;11.45;7.00;;;21.60;81.00;;;;;;5070822;28;20685;-76
2023/10/08 11:37:19;;;;;;;11.82;7.60;;;21.80;79.00;;;;;;5074022;28;20446;-75
2023/10/08 11:39:46;;;;;;;12.57;7.43;;;21.80;78.70;;;;;;5079012;28;20426;-75
2023/10/08 11:42:40;;;;;;;15.10;8.23;;;21.90;78.20;;;;;;5075050;28;20453;-75
2023/10/08 11:45:23;;;;;;;11.38;8.40;;;21.80;78.90;;;;;;5079078;28;20654;-75
2023/10/08 11:47:55;;;;;;;11.13;8.82;;;21.80;79.30;;;;;;5072832;28;20869;-75
2023/10/08 11:50:30;;;;;;;13.60;10.40;;;21.70;80.10;;;;;;5069783;28;20497;-75
2023/10/08 11:53:02;;;;;;;14.80;9.18;;;21.90;79.30;;;;;;5070247;28;20441;-74
2023/10/08 11:55:30;;;;;;;12.30;8.15;;;22.00;79.50;;;;;;5082215;28;20426;-74
2023/10/08 11:57:57;;;;;;;8.60;7.00;;;22.10;80.00;;;;;;5073499;28;21058;-65
2023/10/08 12:00:25;;;;;;;10.07;7.17;;;22.40;78.10;;;;;;5074482;28;20476;-67
2023/10/08 12:02:54;;;;;;;10.93;7.70;;;22.80;77.00;;;;;;5077413;28;20431;-65
2023/10/08 12:05:23;;;;;;;10.80;7.20;;;23.10;75.30;;;;;;5079691;28;20429;-68
2023/10/08 12:07:51;;;;;;;12.55;8.15;;;23.30;74.40;;;;;;5069884;28;20526;-67
2023/10/08 12:10:22;;;;;;;13.50;8.43;;;23.40;75.00;;;;;;5070265;28;20438;-66
2023/10/08 12:12:52;;;;;;;11.10;7.47;;;23.40;73.90;;;;;;5067159;28;20441;-66
2023/10/08 12:15:20;;;;;;;9.90;7.40;;;23.40;74.30;;;;;;5070552;28;20421;-67
2023/10/08 12:18:08;;;;;;;10.98;7.55;;;23.40;75.30;;;;;;5066848;28;20470;-67
2023/10/08 12:20:37;;;;;;;9.40;7.00;;;23.40;73.80;;;;;;5069015;28;20555;-67
2023/10/08 12:23:04;;;;;;;11.25;7.53;;;23.30;77.30;;;;;;5068960;28;20449;-67
2023/10/08 12:25:33;;;;;;;11.80;8.00;;;23.30;77.70;;;;;;5068522;28;22543;-69
2023/10/08 12:28:03;;;;;;;11.90;8.70;;;23.30;76.40;;;;;;5082345;28;20883;-69
2023/10/08 12:30:31;;;;;;;11.30;8.20;;;23.30;77.10;;;;;;5083176;28;20736;-69
2023/10/08 12:32:59;;;;;;;12.95;8.88;;;23.20;77.50;;;;;;5080770;28;20440;-69
2023/10/08 12:35:29;;;;;;;12.20;8.15;;;23.00;73.90;;;;;;5084129;28;20425;-68
2023/10/08 12:37:56;;;;;;;12.33;9.00;;;22.80;74.30;;;;;;5084190;28;20645;-70
2023/10/08 12:40:23;;;;;;;11.02;8.50;;;22.50;78.70;;;;;;5084620;28;20426;-70
2023/10/08 12:42:52;;;;;;;11.05;8.35;;;22.40;78.80;;;;;;5079345;28;20519;-69
2023/10/08 12:45:21;;;;;;;9.90;8.23;;;22.30;79.50;;;;;;5076983;28;20562;-71
2023/10/08 12:47:50;;;;;;;12.30;8.70;;;22.30;80.80;;;;;;5074139;28;20556;-69
2023/10/08 12:50:23;;;;;;;11.38;9.23;;;22.20;83.10;;;;;;5077560;28;20482;-70
2023/10/08 12:52:55;;;;;;;12.35;9.27;;;22.20;81.70;;;;;;5079931;28;20478;-70
2023/10/08 12:55:23;;;;;;;10.85;8.25;;;22.10;80.40;;;;;;5084624;28;20409;-70
2023/10/08 12:57:55;;;;;;;12.80;8.70;;;22.00;81.40;;;;;;5078951;28;20433;-75
2023/10/08 13:00:24;;;;;;;12.77;9.05;;;21.90;82.30;;;;;;5076271;28;20810;-77
2023/10/08 13:02:53;;;;;;;10.90;8.77;;;21.80;81.30;;;;;;5081840;28;20459;-76
2023/10/08 13:05:27;;;;;;;15.20;10.75;;;21.70;82.20;;;;;;5071055;28;20434;-75
2023/10/08 13:07:55;;;;;;;13.75;9.40;;;21.60;86.80;;;;;;5072603;28;20430;-76
2023/10/08 13:10:22;;;;;;;13.07;8.63;;;21.60;83.70;;;;;;5075573;28;20634;-77
2023/10/08 13:12:49;;;;;;;13.80;10.05;;;21.50;82.60;;;;;;5083961;28;20454;-77
2023/10/08 13:15:18;;;;;;;13.07;9.70;;;21.50;86.50;;;;;;5080622;28;20436;-75
2023/10/08 13:17:45;;;;;;;14.05;9.90;;;21.50;83.30;;;;;;5080898;28;20444;-76
2023/10/08 13:20:12;;;;;;;14.15;9.13;;;21.50;83.50;;;;;;5082423;28;20428;-75